Terminal Aerodrome Forecast
Issued by NWS Glasgow, MT

Home | Current Version | Previous Version | Text Only | Print | Product List | Glossary On
Versions: 1 2 3 4 5 6 7 8 9 10 11 12 13
000
FTUS45 KGGW 161100
TAFGGW
TAF
KGGW 161127Z 1612/1712 07008KT P6SM SCT015
      TEMPO 1612/1613 BKN015
     FM161300 04010KT P6SM OVC015
     FM161900 09010KT P6SM OVC050
     FM170200 09015KT P6SM BKN100=

USA.gov is the U.S. government's official web portal to all federal, state and local government web resources and services.